Time;durP1;ratioP1;P1;durP2;ratioP2;P2;SDS_P1;SDS_P2;PMS_P1;PMS_P2;Temp;Humidity;BMP_temperature;BMP_pressure;BME280_temperature;BME280_humidity;BME280_pressure;Samples;Min_cycle;Max_cycle;Signal;HPM_P1;HPM_P2
2021/11/02 00:01:08;;;;;;;0.60;0.30;;;8.70;99.90;;;;;;5034554;28;20542;-65
2021/11/02 00:03:35;;;;;;;0.50;0.30;;;8.80;99.90;;;;;;5033783;28;20448;-63
2021/11/02 00:06:03;;;;;;;0.40;0.20;;;8.80;99.90;;;;;;5033577;28;20532;-64
2021/11/02 00:08:30;;;;;;;0.70;0.40;;;8.80;99.90;;;;;;5033955;28;20471;-64
2021/11/02 00:10:56;;;;;;;0.90;0.30;;;8.80;99.90;;;;;;5033584;28;20488;-64
2021/11/02 00:13:29;;;;;;;0.90;0.40;;;8.80;99.90;;;;;;5034156;28;20771;-64
2021/11/02 00:16:04;;;;;;;0.50;0.30;;;8.80;99.90;;;;;;5034281;28;20440;-64
2021/11/02 00:18:31;;;;;;;0.60;0.30;;;8.90;99.90;;;;;;5017616;28;20447;-64
2021/11/02 00:21:00;;;;;;;0.40;0.20;;;8.90;99.90;;;;;;5033836;28;20456;-64
2021/11/02 00:23:29;;;;;;;0.50;0.30;;;8.90;99.90;;;;;;5035617;28;20499;-63
2021/11/02 00:25:56;;;;;;;4.00;0.37;;;8.90;99.90;;;;;;5034511;28;20617;-64
2021/11/02 00:28:23;;;;;;;0.80;0.30;;;8.90;99.90;;;;;;5036161;28;20821;-64
2021/11/02 00:30:50;;;;;;;0.50;0.30;;;8.90;99.90;;;;;;5035795;28;20502;-64
2021/11/02 00:33:18;;;;;;;0.60;0.30;;;8.90;99.90;;;;;;5035777;28;20780;-64
2021/11/02 00:35:45;;;;;;;1.40;0.37;;;9.00;99.90;;;;;;5036121;28;20498;-64
2021/11/02 00:38:12;;;;;;;0.40;0.30;;;9.00;99.90;;;;;;5036548;28;20451;-64
2021/11/02 00:40:40;;;;;;;0.70;0.23;;;9.00;99.90;;;;;;5034764;28;20456;-64
2021/11/02 00:43:09;;;;;;;0.60;0.30;;;9.10;99.90;;;;;;5034649;28;20887;-65
2021/11/02 00:45:37;;;;;;;0.63;0.30;;;9.10;99.90;;;;;;5035360;28;20583;-64
2021/11/02 00:48:08;;;;;;;0.80;0.40;;;9.30;99.90;;;;;;5035158;28;20448;-64
2021/11/02 00:50:37;;;;;;;0.40;0.30;;;9.30;99.90;;;;;;5035233;28;20514;-64
2021/11/02 00:53:05;;;;;;;0.50;0.23;;;9.30;99.90;;;;;;5035603;28;20492;-64
2021/11/02 00:55:32;;;;;;;0.67;0.30;;;9.30;99.90;;;;;;5037855;28;20482;-64
2021/11/02 00:58:01;;;;;;;0.53;0.27;;;9.30;99.90;;;;;;5039840;28;20539;-67
2021/11/02 01:00:32;;;;;;;0.30;0.20;;;9.40;99.90;;;;;;5039343;28;20471;-64
2021/11/02 01:02:59;;;;;;;0.37;0.27;;;9.30;99.90;;;;;;5040180;28;20479;-64
2021/11/02 01:05:26;;;;;;;0.40;0.20;;;9.40;99.90;;;;;;5039774;28;20487;-64
2021/11/02 01:07:54;;;;;;;0.50;0.30;;;9.40;99.90;;;;;;5000542;28;20474;-64
2021/11/02 01:10:21;;;;;;;0.70;0.30;;;9.30;99.90;;;;;;5000175;28;20485;-65
2021/11/02 01:12:51;;;;;;;0.50;0.30;;;9.40;99.90;;;;;;5000336;28;20445;-64
2021/11/02 01:15:21;;;;;;;0.70;0.20;;;9.40;99.90;;;;;;5000401;28;20541;-64
2021/11/02 01:17:48;;;;;;;0.50;0.20;;;9.50;99.90;;;;;;5000076;28;20810;-64
2021/11/02 01:20:16;;;;;;;0.90;0.20;;;9.60;99.90;;;;;;4999714;28;20549;-64
2021/11/02 01:22:45;;;;;;;0.53;0.30;;;9.70;99.90;;;;;;5000167;28;20445;-64
2021/11/02 01:25:15;;;;;;;0.67;0.27;;;9.80;99.90;;;;;;4998437;28;20976;-64
2021/11/02 01:27:43;;;;;;;1.00;0.27;;;9.90;99.90;;;;;;4999814;28;20449;-64
2021/11/02 01:30:12;;;;;;;0.90;0.30;;;9.90;99.90;;;;;;4999736;28;20516;-64
2021/11/02 01:32:40;;;;;;;0.47;0.20;;;9.80;99.90;;;;;;4999861;28;20802;-64
2021/11/02 01:35:08;;;;;;;0.70;0.30;;;9.80;99.90;;;;;;4999838;28;20453;-64
2021/11/02 01:37:38;;;;;;;0.53;0.30;;;9.80;99.90;;;;;;4998911;28;20725;-65
2021/11/02 01:40:08;;;;;;;1.27;0.27;;;9.80;99.90;;;;;;4998985;28;20469;-64
2021/11/02 01:42:37;;;;;;;0.70;0.30;;;9.80;99.90;;;;;;4998385;28;20499;-64
2021/11/02 01:45:06;;;;;;;0.57;0.23;;;9.70;99.90;;;;;;4998062;28;21035;-64
2021/11/02 01:47:34;;;;;;;1.17;0.30;;;9.70;99.90;;;;;;4997603;28;20453;-64
2021/11/02 01:50:02;;;;;;;0.40;0.20;;;9.60;99.90;;;;;;4998086;28;20466;-64
2021/11/02 01:52:29;;;;;;;0.90;0.23;;;9.60;99.90;;;;;;4998641;28;20545;-64
2021/11/02 01:54:56;;;;;;;1.53;0.20;;;9.80;99.90;;;;;;4997825;28;20834;-64
2021/11/02 01:57:23;;;;;;;0.70;0.27;;;9.80;99.90;;;;;;4998157;28;20473;-64
2021/11/02 01:59:52;;;;;;;0.53;0.30;;;9.80;99.90;;;;;;4999477;28;20462;-64
2021/11/02 02:02:30;;;;;;;0.40;0.20;;;9.80;99.90;;;;;;4999401;28;20553;-64
2021/11/02 02:05:05;;;;;;;4.10;0.30;;;9.80;99.90;;;;;;4998879;28;20548;-64
2021/11/02 02:07:41;;;;;;;0.50;0.20;;;9.70;99.90;;;;;;5032281;28;20472;-64
2021/11/02 02:10:13;;;;;;;0.60;0.20;;;9.70;99.90;;;;;;5037903;28;20557;-64
2021/11/02 02:12:54;;;;;;;0.50;0.20;;;9.80;99.90;;;;;;5037293;28;20472;-64
2021/11/02 02:15:26;;;;;;;0.40;0.20;;;9.80;99.90;;;;;;5038125;28;20456;-64
2021/11/02 02:17:57;;;;;;;1.53;0.30;;;9.70;99.90;;;;;;5037757;28;20912;-64
2021/11/02 02:20:42;;;;;;;0.50;0.20;;;9.80;99.90;;;;;;5038395;28;20480;-64
2021/11/02 02:23:30;;;;;;;0.50;0.20;;;9.70;99.90;;;;;;5037860;28;20880;-63
2021/11/02 02:26:03;;;;;;;1.13;0.30;;;9.60;99.90;;;;;;5020118;28;20570;-64
2021/11/02 02:28:37;;;;;;;1.53;0.20;;;9.50;99.90;;;;;;5036975;28;20886;-64
2021/11/02 02:31:06;;;;;;;0.40;0.20;;;9.50;99.90;;;;;;5037979;28;20887;-64
2021/11/02 02:33:36;;;;;;;1.43;0.30;;;9.40;99.90;;;;;;5037746;28;20444;-64
2021/11/02 02:36:05;;;;;;;0.90;0.37;;;9.30;99.90;;;;;;5038228;28;20865;-65
2021/11/02 02:38:35;;;;;;;1.00;0.20;;;9.20;99.90;;;;;;5038096;28;20480;-64
2021/11/02 02:41:04;;;;;;;0.60;0.20;;;9.20;99.90;;;;;;5038239;28;20452;-63
2021/11/02 02:43:35;;;;;;;0.30;0.10;;;9.30;99.90;;;;;;5038192;28;20449;-63
2021/11/02 02:46:03;;;;;;;0.40;0.20;;;9.30;99.90;;;;;;5037481;28;20484;-64
2021/11/02 02:48:31;;;;;;;0.30;0.20;;;9.30;99.90;;;;;;5037783;28;20460;-66
2021/11/02 02:50:58;;;;;;;0.77;0.27;;;9.40;99.90;;;;;;5038000;28;20484;-64
2021/11/02 02:53:26;;;;;;;0.40;0.20;;;9.30;99.90;;;;;;5038088;28;20491;-64
2021/11/02 02:55:58;;;;;;;0.50;0.27;;;9.20;99.90;;;;;;5037865;28;20518;-63
2021/11/02 02:58:25;;;;;;;0.67;0.20;;;9.00;99.90;;;;;;5037907;28;20452;-64
2021/11/02 03:00:54;;;;;;;0.40;0.20;;;9.00;99.90;;;;;;5037968;28;20503;-63
2021/11/02 03:03:24;;;;;;;0.40;0.20;;;8.90;99.90;;;;;;5037129;28;20543;-64
2021/11/02 03:05:53;;;;;;;0.40;0.20;;;8.90;99.90;;;;;;5036652;28;20527;-63
2021/11/02 03:08:20;;;;;;;0.50;0.30;;;8.80;99.90;;;;;;5035975;28;20506;-63
2021/11/02 03:10:50;;;;;;;1.17;0.43;;;8.80;99.90;;;;;;5035511;28;20563;-63
2021/11/02 03:13:20;;;;;;;0.40;0.20;;;8.70;99.90;;;;;;5034722;28;20492;-63
2021/11/02 03:15:58;;;;;;;0.60;0.30;;;8.70;99.90;;;;;;5035540;28;20448;-64
2021/11/02 03:19:05;;;;;;;0.40;0.20;;;8.70;99.90;;;;;;5034677;28;20448;-64
2021/11/02 03:44:26;;;;;;;1.83;0.20;;;8.40;99.90;;;;;;5035967;28;20435;-63
2021/11/02 03:49:54;;;;;;;0.30;0.20;;;8.20;99.90;;;;;;5036360;28;20432;-64
2021/11/02 03:55:10;;;;;;;0.47;0.30;;;8.20;99.90;;;;;;5035686;28;20432;-63
2021/11/02 03:57:45;;;;;;;0.40;0.20;;;8.20;99.90;;;;;;5035498;28;20492;-63
2021/11/02 04:00:56;;;;;;;0.40;0.20;;;8.20;99.90;;;;;;5037056;28;20507;-64
2021/11/02 04:29:03;;;;;;;1.60;0.30;;;8.10;99.90;;;;;;5002196;28;20474;-63
2021/11/02 04:35:09;;;;;;;1.43;0.43;;;8.20;99.90;;;;;;4974421;28;20525;-63
2021/11/02 05:08:32;;;;;;;0.40;0.30;;;7.70;99.90;;;;;;5034602;28;20439;-63
2021/11/02 05:11:35;;;;;;;0.40;0.20;;;7.50;99.90;;;;;;5034863;28;20833;-62
2021/11/02 05:47:18;;;;;;;1.67;0.30;;;7.30;99.90;;;;;;5038655;28;21001;-62
2021/11/02 05:49:56;;;;;;;1.97;0.50;;;7.30;99.90;;;;;;5037380;28;20459;-59
2021/11/02 05:55:38;;;;;;;0.40;0.20;;;7.30;99.90;;;;;;5034335;28;20448;-61
2021/11/02 05:58:11;;;;;;;0.70;0.40;;;7.30;99.90;;;;;;5034290;28;20543;-63
2021/11/02 06:00:49;;;;;;;0.50;0.30;;;7.30;99.90;;;;;;5034052;28;20456;-63
2021/11/02 06:03:28;;;;;;;0.60;0.30;;;7.20;99.90;;;;;;5044055;28;20475;-64
2021/11/02 06:06:04;;;;;;;0.47;0.30;;;7.20;99.90;;;;;;5053687;28;20526;-58
2021/11/02 06:28:26;;;;;;;0.60;0.30;;;7.30;99.90;;;;;;5000157;28;20483;-58
2021/11/02 06:31:01;;;;;;;1.40;0.30;;;7.30;99.90;;;;;;5055455;28;20887;-58
2021/11/02 06:33:41;;;;;;;0.50;0.30;;;7.30;99.90;;;;;;5055468;28;20492;-57
2021/11/02 06:36:38;;;;;;;0.50;0.30;;;7.40;99.90;;;;;;5054443;28;20443;-59
2021/11/02 06:42:19;;;;;;;0.53;0.33;;;7.40;99.90;;;;;;5050324;28;20439;-58
2021/11/02 06:48:09;;;;;;;0.50;0.20;;;7.40;99.90;;;;;;5018313;28;20479;-59
2021/11/02 06:56:47;;;;;;;0.70;0.40;;;7.40;99.90;;;;;;5054958;28;20738;-59
2021/11/02 06:59:41;;;;;;;2.57;0.47;;;7.40;99.90;;;;;;5055503;28;20451;-59
2021/11/02 07:19:17;;;;;;;0.63;0.30;;;7.70;99.90;;;;;;5030509;28;20525;-60
2021/11/02 07:21:55;;;;;;;1.27;0.30;;;7.80;99.90;;;;;;5047187;28;20449;-60
2021/11/02 07:24:29;;;;;;;0.50;0.30;;;8.30;99.90;;;;;;5042885;28;20882;-60
2021/11/02 07:27:07;;;;;;;0.50;0.20;;;8.30;99.90;;;;;;5040101;28;20476;-60
2021/11/02 07:30:17;;;;;;;2.30;0.30;;;8.30;99.90;;;;;;5048960;28;20498;-60
2021/11/02 08:45:50;;;;;;;0.57;0.27;;;9.90;99.90;;;;;;5033363;28;20930;-59
2021/11/02 08:48:18;;;;;;;0.70;0.20;;;9.90;99.90;;;;;;5034801;28;20439;-59
2021/11/02 08:50:51;;;;;;;0.63;0.30;;;9.90;99.90;;;;;;5033745;28;20552;-60
2021/11/02 08:53:20;;;;;;;1.00;0.30;;;9.90;99.90;;;;;;5033780;28;20501;-59
2021/11/02 08:55:49;;;;;;;0.50;0.20;;;9.90;99.90;;;;;;5044136;28;20451;-59
2021/11/02 08:58:19;;;;;;;0.40;0.20;;;9.90;99.90;;;;;;5051866;28;20777;-59
2021/11/02 09:00:46;;;;;;;0.30;0.20;;;9.90;99.90;;;;;;5053172;28;20455;-59
2021/11/02 09:03:19;;;;;;;1.97;0.20;;;9.90;99.90;;;;;;5051708;28;20440;-58
2021/11/02 09:05:52;;;;;;;0.40;0.20;;;10.00;99.90;;;;;;5051471;28;20812;-59
2021/11/02 09:08:22;;;;;;;3.90;0.40;;;10.00;99.90;;;;;;5052304;28;20451;-60
2021/11/02 09:10:50;;;;;;;2.30;0.20;;;10.10;99.90;;;;;;5051049;28;20466;-58
2021/11/02 09:13:18;;;;;;;0.30;0.10;;;10.00;99.90;;;;;;5047311;28;20757;-58
2021/11/02 09:15:48;;;;;;;0.95;0.25;;;10.00;99.90;;;;;;5040270;28;20517;-60
2021/11/02 09:18:18;;;;;;;1.70;0.20;;;9.90;99.90;;;;;;5054594;28;20196;-59
2021/11/02 09:20:48;;;;;;;1.33;0.20;;;9.90;99.90;;;;;;5053376;28;20838;-59
2021/11/02 09:23:15;;;;;;;0.40;0.27;;;9.80;99.90;;;;;;5056233;28;20487;-58
2021/11/02 09:25:44;;;;;;;0.60;0.20;;;9.80;99.90;;;;;;5056007;28;21088;-58
2021/11/02 09:28:13;;;;;;;1.37;0.23;;;9.80;99.90;;;;;;5056645;28;20588;-59
2021/11/02 09:30:41;;;;;;;0.40;0.10;;;9.80;99.90;;;;;;5056119;28;20455;-59
2021/11/02 09:33:11;;;;;;;0.70;0.30;;;9.80;99.90;;;;;;5055092;28;20427;-57
2021/11/02 09:35:39;;;;;;;0.30;0.20;;;9.90;99.90;;;;;;5047886;28;20477;-57
2021/11/02 09:38:17;;;;;;;1.10;0.40;;;9.80;99.90;;;;;;5055316;28;20459;-60
2021/11/02 09:41:25;;;;;;;0.97;0.30;;;9.70;99.90;;;;;;5053569;28;20459;-59
2021/11/02 09:44:45;;;;;;;0.60;0.30;;;9.90;99.90;;;;;;5054265;28;20466;-59
2021/11/02 09:47:45;;;;;;;0.40;0.23;;;9.80;99.90;;;;;;5019824;28;20635;-59
2021/11/02 09:50:35;;;;;;;2.80;0.20;;;9.70;99.90;;;;;;5049849;28;20455;-59
2021/11/02 09:53:39;;;;;;;0.40;0.23;;;9.60;99.90;;;;;;5056034;28;20471;-60
2021/11/02 09:56:18;;;;;;;0.60;0.30;;;9.50;99.90;;;;;;5051891;28;20505;-60
2021/11/02 09:59:20;;;;;;;0.37;0.20;;;9.50;99.90;;;;;;5052684;28;20509;-57
2021/11/02 10:01:50;;;;;;;1.20;0.30;;;9.70;99.90;;;;;;5051812;28;20443;-56
2021/11/02 10:04:44;;;;;;;0.50;0.20;;;9.70;99.90;;;;;;5053588;28;20447;-58
2021/11/02 10:07:50;;;;;;;0.50;0.30;;;9.70;99.90;;;;;;5037156;28;20492;-58
2021/11/02 10:10:25;;;;;;;0.50;0.20;;;9.70;99.90;;;;;;5025442;28;20462;-59
2021/11/02 10:13:01;;;;;;;0.40;0.20;;;9.70;99.90;;;;;;5036282;28;20436;-57
2021/11/02 10:15:45;;;;;;;0.50;0.28;;;9.70;99.90;;;;;;5044681;28;20453;-57
2021/11/02 10:18:54;;;;;;;0.40;0.20;;;9.70;99.90;;;;;;5032785;28;20201;-57
2021/11/02 10:22:05;;;;;;;0.50;0.20;;;9.60;99.90;;;;;;5037241;28;20886;-57
2021/11/02 10:25:06;;;;;;;1.67;1.03;;;9.60;99.90;;;;;;5054988;28;20559;-58
2021/11/02 10:28:11;;;;;;;1.10;0.20;;;9.50;99.90;;;;;;5053690;28;20494;-58
2021/11/02 10:30:48;;;;;;;0.40;0.20;;;9.40;99.90;;;;;;5038646;28;20787;-58
2021/11/02 10:33:20;;;;;;;0.40;0.20;;;9.50;99.90;;;;;;5035869;28;20849;-57
2021/11/02 10:36:15;;;;;;;0.40;0.10;;;9.60;99.90;;;;;;5037836;28;20480;-58
2021/11/02 10:38:50;;;;;;;0.37;0.20;;;9.70;99.90;;;;;;5040700;28;20825;-57
2021/11/02 10:41:26;;;;;;;0.40;0.27;;;9.80;99.90;;;;;;5044623;28;20928;-57
2021/11/02 10:44:03;;;;;;;0.40;0.10;;;9.70;99.90;;;;;;5042888;28;20447;-56
2021/11/02 10:46:33;;;;;;;0.40;0.20;;;9.80;99.90;;;;;;5041668;28;20443;-58
2021/11/02 10:49:09;;;;;;;0.40;0.23;;;9.70;99.90;;;;;;5041276;28;20453;-56
2021/11/02 10:51:39;;;;;;;0.40;0.30;;;9.80;99.90;;;;;;5036101;28;20831;-57
2021/11/02 10:54:38;;;;;;;0.47;0.20;;;9.80;99.90;;;;;;5039167;28;20546;-57
2021/11/02 10:57:24;;;;;;;0.33;0.20;;;9.80;99.90;;;;;;5022536;28;20487;-57
2021/11/02 11:00:01;;;;;;;0.50;0.30;;;9.80;99.90;;;;;;5041429;28;21019;-58
2021/11/02 11:02:30;;;;;;;0.50;0.20;;;9.90;99.90;;;;;;5052904;28;20718;-58
2021/11/02 11:05:01;;;;;;;1.27;0.30;;;9.90;99.90;;;;;;5050827;28;20558;-60
2021/11/02 11:07:29;;;;;;;2.00;0.40;;;9.90;99.90;;;;;;5037290;28;20491;-59
2021/11/02 11:09:56;;;;;;;0.50;0.30;;;9.90;99.90;;;;;;5033509;28;20452;-59
2021/11/02 11:12:33;;;;;;;0.40;0.23;;;10.10;99.90;;;;;;5039780;28;20439;-59
2021/11/02 11:15:04;;;;;;;0.53;0.30;;;10.10;99.90;;;;;;5042050;28;20521;-61
2021/11/02 11:17:34;;;;;;;0.83;0.30;;;10.10;99.90;;;;;;5051429;28;20447;-58
2021/11/02 11:20:21;;;;;;;0.50;0.20;;;10.10;99.90;;;;;;5036936;28;20541;-59
2021/11/02 11:22:50;;;;;;;2.80;0.30;;;10.20;99.90;;;;;;5036604;28;20456;-58
2021/11/02 11:25:24;;;;;;;0.90;0.30;;;10.20;99.90;;;;;;5051254;28;20864;-58
2021/11/02 11:27:55;;;;;;;0.68;0.30;;;10.30;99.90;;;;;;5050905;28;20366;-57
2021/11/02 11:30:27;;;;;;;0.80;0.30;;;10.30;99.90;;;;;;5046244;28;20194;-55
2021/11/02 11:32:55;;;;;;;1.60;0.37;;;10.40;99.90;;;;;;5030257;28;20453;-57
2021/11/02 11:35:25;;;;;;;0.50;0.27;;;10.40;99.90;;;;;;5035657;28;20979;-56
2021/11/02 11:37:55;;;;;;;0.40;0.20;;;10.30;99.90;;;;;;5041296;28;20894;-58
2021/11/02 11:40:26;;;;;;;0.60;0.30;;;10.40;99.90;;;;;;5043191;28;20890;-57
2021/11/02 11:42:56;;;;;;;0.40;0.27;;;10.60;99.90;;;;;;5042202;28;20476;-56
2021/11/02 11:45:28;;;;;;;0.73;0.30;;;10.80;99.90;;;;;;5034918;28;20460;-56
2021/11/02 11:48:17;;;;;;;1.63;0.30;;;11.00;99.90;;;;;;5036059;28;20877;-57
2021/11/02 11:50:45;;;;;;;0.50;0.30;;;11.70;99.90;;;;;;5036254;28;20468;-58
2021/11/02 11:53:17;;;;;;;0.40;0.20;;;11.70;99.90;;;;;;5033674;28;20472;-58
2021/11/02 11:56:02;;;;;;;0.50;0.30;;;11.90;99.90;;;;;;5035991;28;20451;-57
2021/11/02 11:58:29;;;;;;;0.60;0.20;;;11.80;99.90;;;;;;5034424;28;20451;-59
2021/11/02 12:01:11;;;;;;;0.67;0.20;;;11.90;99.90;;;;;;5034409;28;20440;-57
2021/11/02 12:03:51;;;;;;;0.30;0.20;;;12.00;99.90;;;;;;5050235;28;20448;-58
2021/11/02 12:06:22;;;;;;;0.60;0.30;;;11.90;99.90;;;;;;5033291;28;20709;-57
2021/11/02 12:08:57;;;;;;;0.67;0.30;;;11.90;99.90;;;;;;5045030;28;20476;-58
2021/11/02 12:11:29;;;;;;;0.40;0.20;;;12.20;99.90;;;;;;5046545;28;20466;-59
2021/11/02 12:14:06;;;;;;;1.70;0.20;;;12.10;99.90;;;;;;5035996;28;20911;-58
2021/11/02 12:16:40;;;;;;;0.50;0.20;;;12.20;99.90;;;;;;5047370;28;20458;-55
2021/11/02 12:19:18;;;;;;;0.50;0.23;;;11.90;99.90;;;;;;5047653;28;20562;-56
2021/11/02 12:22:03;;;;;;;0.40;0.20;;;11.70;99.90;;;;;;5036768;28;21273;-57
2021/11/02 12:24:32;;;;;;;0.40;0.20;;;11.60;99.90;;;;;;5047713;28;20459;-58
2021/11/02 12:27:12;;;;;;;0.53;0.20;;;11.40;99.90;;;;;;5050507;28;20487;-56
2021/11/02 12:29:40;;;;;;;0.40;0.10;;;11.30;99.90;;;;;;5033390;28;20513;-55
2021/11/02 12:32:12;;;;;;;0.27;0.10;;;11.20;99.90;;;;;;5032701;28;20915;-57
2021/11/02 12:35:04;;;;;;;1.70;0.10;;;11.10;99.90;;;;;;5035711;28;21858;-59
2021/11/02 12:37:32;;;;;;;0.50;0.20;;;11.10;99.90;;;;;;5035944;28;20435;-57
2021/11/02 12:40:16;;;;;;;0.50;0.20;;;11.10;99.90;;;;;;5037957;28;20441;-59
2021/11/02 12:42:45;;;;;;;0.30;0.10;;;11.10;99.90;;;;;;5034036;28;20484;-59
2021/11/02 12:45:13;;;;;;;1.07;0.17;;;11.10;99.90;;;;;;5033742;28;20514;-59
2021/11/02 12:47:46;;;;;;;0.30;0.10;;;11.10;99.90;;;;;;5037256;28;20481;-59
2021/11/02 12:50:17;;;;;;;0.30;0.10;;;11.10;99.90;;;;;;5054346;28;20962;-60
2021/11/02 12:52:46;;;;;;;0.33;0.10;;;11.20;99.90;;;;;;5058342;28;20473;-59
2021/11/02 12:55:15;;;;;;;0.30;0.20;;;11.40;99.90;;;;;;5045804;28;20523;-59
2021/11/02 12:57:43;;;;;;;0.30;0.10;;;11.60;99.90;;;;;;5037460;28;20484;-59
2021/11/02 13:00:15;;;;;;;0.30;0.10;;;11.90;99.90;;;;;;5037596;28;20456;-59
2021/11/02 13:02:52;;;;;;;0.30;0.10;;;12.00;99.90;;;;;;5037546;28;20443;-61
2021/11/02 13:05:21;;;;;;;0.80;0.20;;;12.10;99.90;;;;;;5038521;28;20922;-59
2021/11/02 13:08:03;;;;;;;0.30;0.10;;;12.00;99.90;;;;;;5038038;28;20496;-57
2021/11/02 13:10:31;;;;;;;0.30;0.10;;;11.90;99.90;;;;;;5036392;28;20448;-58
2021/11/02 13:13:11;;;;;;;0.30;0.10;;;11.80;99.90;;;;;;5037296;28;20455;-58
2021/11/02 13:15:49;;;;;;;0.60;0.10;;;11.50;99.90;;;;;;5037050;28;20452;-59
2021/11/02 13:18:30;;;;;;;0.30;0.10;;;11.40;99.90;;;;;;5035021;28;20455;-58
2021/11/02 13:21:17;;;;;;;0.30;0.10;;;11.40;99.90;;;;;;5033686;28;20810;-56
2021/11/02 13:23:49;;;;;;;0.33;0.10;;;11.40;99.90;;;;;;5030855;28;20455;-57
2021/11/02 13:26:18;;;;;;;0.30;0.10;;;11.40;99.90;;;;;;5030233;28;20456;-58
2021/11/02 13:28:45;;;;;;;0.60;0.10;;;11.20;99.90;;;;;;5031622;28;20596;-57
2021/11/02 13:31:27;;;;;;;0.33;0.10;;;11.10;99.90;;;;;;5032882;28;20494;-58
2021/11/02 13:33:59;;;;;;;0.30;0.10;;;11.10;99.90;;;;;;5031857;28;20456;-57
2021/11/02 13:36:26;;;;;;;0.30;0.10;;;11.10;99.90;;;;;;5033516;28;20529;-57
2021/11/02 13:38:59;;;;;;;0.30;0.10;;;11.20;99.90;;;;;;5033476;28;20961;-57
2021/11/02 13:41:28;;;;;;;0.20;0.10;;;11.10;99.90;;;;;;5035379;28;20440;-59
2021/11/02 13:43:57;;;;;;;0.40;0.10;;;11.00;99.90;;;;;;5035991;28;20491;-58
2021/11/02 13:46:26;;;;;;;0.30;0.10;;;11.00;99.90;;;;;;5035920;28;20455;-59
2021/11/02 13:48:57;;;;;;;0.30;0.10;;;11.10;99.90;;;;;;5035960;28;20949;-57
2021/11/02 13:51:26;;;;;;;0.30;0.10;;;11.10;99.90;;;;;;5032690;28;20462;-55
2021/11/02 13:53:54;;;;;;;0.40;0.10;;;10.80;99.90;;;;;;5050948;28;20451;-56
2021/11/02 13:56:23;;;;;;;0.30;0.10;;;10.80;99.90;;;;;;5054600;28;20457;-59
2021/11/02 13:58:51;;;;;;;0.30;0.10;;;10.90;99.90;;;;;;5053739;28;20673;-58
2021/11/02 14:01:25;;;;;;;0.40;0.10;;;10.80;99.90;;;;;;5054037;28;20463;-58
2021/11/02 14:04:00;;;;;;;0.27;0.10;;;10.60;99.90;;;;;;5054684;28;20450;-58
2021/11/02 14:06:30;;;;;;;0.30;0.10;;;10.70;99.90;;;;;;5054282;28;20509;-58
2021/11/02 14:08:58;;;;;;;0.30;0.10;;;10.80;99.90;;;;;;5053831;28;20596;-58
2021/11/02 14:11:34;;;;;;;0.20;0.10;;;10.90;99.90;;;;;;5053414;28;20875;-58
2021/11/02 14:14:03;;;;;;;0.30;0.10;;;11.00;99.90;;;;;;5053261;28;20462;-57
2021/11/02 14:16:35;;;;;;;0.30;0.10;;;11.10;99.90;;;;;;5055117;28;20454;-58
2021/11/02 14:19:04;;;;;;;0.20;0.10;;;11.20;99.90;;;;;;5052211;28;20447;-58
2021/11/02 14:21:48;;;;;;;0.30;0.10;;;11.30;99.90;;;;;;5043066;28;20454;-57
2021/11/02 14:24:15;;;;;;;0.30;0.10;;;11.30;99.90;;;;;;5042814;28;20448;-56
2021/11/02 14:26:51;;;;;;;0.30;0.10;;;11.10;99.90;;;;;;5051885;28;20443;-56
2021/11/02 14:29:18;;;;;;;0.30;0.20;;;11.10;99.90;;;;;;5038905;28;20487;-58
2021/11/02 14:32:01;;;;;;;0.30;0.10;;;11.20;99.90;;;;;;5043954;28;20450;-58
2021/11/02 14:34:47;;;;;;;0.23;0.10;;;11.30;99.90;;;;;;5048518;28;20451;-58
2021/11/02 14:37:27;;;;;;;1.83;0.10;;;11.20;99.90;;;;;;5039472;28;20436;-59
2021/11/02 14:39:56;;;;;;;0.40;0.10;;;11.10;99.90;;;;;;5043794;28;20871;-57
2021/11/02 14:42:40;;;;;;;0.27;0.10;;;11.10;99.90;;;;;;5038686;28;20906;-59
2021/11/02 14:45:08;;;;;;;0.50;0.10;;;11.00;99.90;;;;;;5042973;28;20553;-57
2021/11/02 14:47:36;;;;;;;0.30;0.10;;;11.00;99.90;;;;;;5037721;28;20863;-58
2021/11/02 14:50:05;;;;;;;0.30;0.10;;;10.80;99.90;;;;;;5050263;28;20942;-58
2021/11/02 14:52:37;;;;;;;0.30;0.10;;;10.80;99.90;;;;;;5040546;28;20435;-58
2021/11/02 14:55:06;;;;;;;0.40;0.10;;;10.80;99.90;;;;;;5043956;28;20489;-57
2021/11/02 14:57:52;;;;;;;1.53;0.17;;;10.80;99.90;;;;;;5049741;28;20460;-55
2021/11/02 15:00:38;;;;;;;0.40;0.10;;;10.90;99.90;;;;;;5055834;28;20798;-56
2021/11/02 15:03:19;;;;;;;0.30;0.10;;;11.00;99.90;;;;;;5053181;28;20493;-58
2021/11/02 15:05:47;;;;;;;0.40;0.10;;;10.90;99.90;;;;;;5054448;28;20581;-54
2021/11/02 15:08:16;;;;;;;2.83;0.20;;;10.80;99.90;;;;;;5054562;28;20515;-56
2021/11/02 15:10:45;;;;;;;0.30;0.10;;;10.80;99.90;;;;;;5054815;28;20490;-54
2021/11/02 15:13:12;;;;;;;0.30;0.10;;;10.70;99.90;;;;;;5053422;28;20444;-52
2021/11/02 15:15:40;;;;;;;1.90;0.13;;;10.60;99.90;;;;;;5052666;28;20443;-55
2021/11/02 15:18:11;;;;;;;1.70;0.20;;;10.50;99.90;;;;;;5054256;28;20509;-55
2021/11/02 15:20:41;;;;;;;0.30;0.10;;;10.40;99.90;;;;;;5054475;28;20489;-56
2021/11/02 15:23:08;;;;;;;0.30;0.10;;;10.50;99.90;;;;;;5048416;28;20451;-56
2021/11/02 15:25:37;;;;;;;0.30;0.10;;;10.60;99.90;;;;;;5051459;28;20466;-55
2021/11/02 15:28:15;;;;;;;0.40;0.10;;;10.50;99.90;;;;;;5047166;28;20548;-53
2021/11/02 15:30:42;;;;;;;0.30;0.10;;;10.40;99.90;;;;;;5042560;28;20467;-54
2021/11/02 15:33:09;;;;;;;0.30;0.17;;;10.30;99.90;;;;;;5043091;28;21045;-55
2021/11/02 15:35:37;;;;;;;0.30;0.10;;;10.30;99.90;;;;;;5044198;28;20538;-56
2021/11/02 15:38:08;;;;;;;0.40;0.20;;;10.30;99.90;;;;;;5054259;28;20538;-52
2021/11/02 15:40:39;;;;;;;0.30;0.10;;;10.10;99.90;;;;;;5047973;28;20459;-55
2021/11/02 15:43:08;;;;;;;0.70;0.20;;;10.20;99.90;;;;;;5046632;28;20439;-53
2021/11/02 15:45:38;;;;;;;0.30;0.10;;;10.10;99.90;;;;;;5040288;28;20756;-56
2021/11/02 15:48:10;;;;;;;0.47;0.13;;;10.00;99.90;;;;;;5032522;28;20755;-54
2021/11/02 15:50:42;;;;;;;0.30;0.10;;;9.90;99.90;;;;;;5037822;28;20907;-57
2021/11/02 15:53:18;;;;;;;0.33;0.10;;;9.80;99.90;;;;;;5033622;28;20440;-58
2021/11/02 15:55:46;;;;;;;0.30;0.10;;;9.90;99.90;;;;;;5049315;28;20462;-57
2021/11/02 15:58:15;;;;;;;0.30;0.10;;;10.10;99.90;;;;;;5049088;28;20573;-55
2021/11/02 16:00:48;;;;;;;0.60;0.20;;;10.10;99.90;;;;;;5033779;28;20864;-57
2021/11/02 16:03:16;;;;;;;0.30;0.10;;;10.00;99.90;;;;;;5045133;28;20447;-55
2021/11/02 16:05:44;;;;;;;0.30;0.10;;;9.80;99.90;;;;;;5039478;28;20459;-55
2021/11/02 16:08:16;;;;;;;0.60;0.10;;;9.70;99.90;;;;;;5050778;28;20460;-56
2021/11/02 16:10:45;;;;;;;0.30;0.10;;;9.70;99.90;;;;;;5039252;28;20464;-56
2021/11/02 16:13:14;;;;;;;0.20;0.10;;;9.70;99.90;;;;;;5042797;28;20455;-58
2021/11/02 16:15:43;;;;;;;0.40;0.20;;;9.70;99.90;;;;;;5054129;28;20448;-58
2021/11/02 16:18:16;;;;;;;0.30;0.10;;;9.80;99.90;;;;;;5041569;28;20453;-60
2021/11/02 16:20:45;;;;;;;3.10;0.20;;;9.70;99.90;;;;;;5039578;28;20514;-60
2021/11/02 16:23:14;;;;;;;0.30;0.10;;;9.60;99.90;;;;;;5053014;28;20463;-61
2021/11/02 16:25:44;;;;;;;0.27;0.10;;;9.70;99.90;;;;;;5050555;28;20447;-61
2021/11/02 16:28:18;;;;;;;0.40;0.20;;;9.70;99.90;;;;;;5043017;28;20542;-61
2021/11/02 16:30:47;;;;;;;0.40;0.20;;;9.80;99.90;;;;;;5053273;28;20839;-61
2021/11/02 16:33:15;;;;;;;0.30;0.10;;;9.70;99.90;;;;;;5051353;28;20487;-60
2021/11/02 16:35:44;;;;;;;0.40;0.20;;;9.60;99.90;;;;;;5042009;28;20509;-61
2021/11/02 16:38:26;;;;;;;1.83;0.20;;;9.60;99.90;;;;;;5041322;28;20455;-60
2021/11/02 16:40:56;;;;;;;0.40;0.20;;;9.60;99.90;;;;;;5044131;28;20558;-61
2021/11/02 16:43:33;;;;;;;0.30;0.10;;;9.60;99.90;;;;;;5044338;28;20455;-61
2021/11/02 16:46:00;;;;;;;0.37;0.20;;;9.70;99.90;;;;;;5053462;28;20739;-60
2021/11/02 16:48:41;;;;;;;0.30;0.20;;;9.70;99.90;;;;;;5051946;28;20947;-60
2021/11/02 16:51:08;;;;;;;0.40;0.20;;;9.90;99.90;;;;;;5051237;28;20824;-60
2021/11/02 16:53:37;;;;;;;0.40;0.20;;;9.90;99.90;;;;;;5043679;28;20899;-61
2021/11/02 16:56:15;;;;;;;0.50;0.20;;;9.80;99.90;;;;;;5039583;28;20447;-61
2021/11/02 16:58:49;;;;;;;0.40;0.20;;;9.60;99.90;;;;;;5051477;28;20471;-61
2021/11/02 17:01:30;;;;;;;0.90;0.10;;;9.40;99.90;;;;;;5051755;28;20501;-61
2021/11/02 17:04:08;;;;;;;0.65;0.30;;;9.30;99.90;;;;;;5051036;28;20454;-60
2021/11/02 17:06:35;;;;;;;0.40;0.20;;;9.30;99.90;;;;;;5047204;28;20228;-60
2021/11/02 17:09:14;;;;;;;0.50;0.30;;;9.30;99.90;;;;;;5052392;28;20503;-60
2021/11/02 17:11:49;;;;;;;0.80;0.40;;;9.30;99.90;;;;;;5051403;28;20447;-60
2021/11/02 17:14:17;;;;;;;2.33;0.30;;;9.30;99.90;;;;;;5051897;28;20516;-60
2021/11/02 17:17:05;;;;;;;0.60;0.30;;;9.30;99.90;;;;;;5052686;28;20879;-60
2021/11/02 17:19:44;;;;;;;2.00;0.30;;;9.30;99.90;;;;;;5053625;28;20501;-60
2021/11/02 17:22:11;;;;;;;0.57;0.37;;;9.30;99.90;;;;;;5051960;28;20509;-60
2021/11/02 17:24:38;;;;;;;0.93;0.40;;;9.20;99.90;;;;;;5052842;28;20443;-60
2021/11/02 17:27:07;;;;;;;1.20;0.50;;;9.00;99.90;;;;;;5051398;28;20281;-60
2021/11/02 17:29:35;;;;;;;0.70;0.40;;;8.90;99.90;;;;;;5051740;28;20481;-60
2021/11/02 17:32:03;;;;;;;0.70;0.47;;;8.80;99.90;;;;;;5053295;28;20546;-60
2021/11/02 17:34:33;;;;;;;0.63;0.30;;;8.70;99.90;;;;;;5051293;28;20945;-61